Time;durP1;ratioP1;P1;durP2;ratioP2;P2;SDS_P1;SDS_P2;PMS_P1;PMS_P2;Temp;Humidity;BMP_temperature;BMP_pressure;BME280_temperature;BME280_humidity;BME280_pressure;Samples;Min_cycle;Max_cycle;Signal;HPM_P1;HPM_P2
2022/02/20 00:00:45;;;;;;;38.20;22.55;;;10.70;97.70;;;;;;5034748;28;20421;-49
2022/02/20 00:03:11;;;;;;;29.23;17.75;;;10.80;97.70;;;;;;5034676;28;20029;-49
2022/02/20 00:05:36;;;;;;;31.63;17.83;;;10.90;97.50;;;;;;5034772;28;20521;-48
2022/02/20 00:08:05;;;;;;;31.55;19.65;;;10.70;97.10;;;;;;5034661;28;20036;-49
2022/02/20 00:10:31;;;;;;;36.38;21.20;;;10.80;96.80;;;;;;5034642;28;20041;-48
2022/02/20 00:12:57;;;;;;;28.55;17.15;;;10.70;96.80;;;;;;5034668;28;20041;-48
2022/02/20 00:15:24;;;;;;;19.38;11.40;;;10.70;96.70;;;;;;5034436;28;20033;-47
2022/02/20 00:17:53;;;;;;;21.45;12.15;;;10.60;96.40;;;;;;5017981;28;20041;-48
2022/02/20 00:20:19;;;;;;;19.30;11.02;;;10.80;96.40;;;;;;5034597;28;20033;-48
2022/02/20 00:22:45;;;;;;;20.20;11.73;;;10.90;96.20;;;;;;5017696;28;20116;-48
2022/02/20 00:25:11;;;;;;;20.35;11.23;;;10.50;95.80;;;;;;5034388;28;20134;-47
2022/02/20 00:27:38;;;;;;;15.27;8.90;;;10.30;96.10;;;;;;5068476;28;20067;-48
2022/02/20 00:30:04;;;;;;;12.45;6.63;;;10.50;96.30;;;;;;5076496;28;20025;-47
2022/02/20 00:32:30;;;;;;;9.30;5.60;;;10.40;96.10;;;;;;5057651;28;20043;-48
2022/02/20 00:34:55;;;;;;;8.30;3.45;;;10.40;95.90;;;;;;5041095;28;20115;-48
2022/02/20 00:37:21;;;;;;;6.10;4.32;;;10.40;95.80;;;;;;5074233;28;20473;-48
2022/02/20 00:39:47;;;;;;;7.72;4.10;;;10.30;96.00;;;;;;5076366;28;20025;-48
2022/02/20 00:42:13;;;;;;;6.97;2.83;;;10.30;95.90;;;;;;5074546;28;20036;-48
2022/02/20 00:44:40;;;;;;;11.35;5.60;;;10.30;95.50;;;;;;5076310;28;20415;-49
2022/02/20 00:47:06;;;;;;;7.68;3.22;;;10.20;96.00;;;;;;5076247;28;20016;-48
2022/02/20 00:49:32;;;;;;;6.05;2.88;;;10.30;96.00;;;;;;5074213;28;20036;-47
2022/02/20 00:51:57;;;;;;;6.95;3.35;;;10.10;95.80;;;;;;5076001;28;20353;-48
2022/02/20 00:54:23;;;;;;;5.00;2.78;;;10.20;95.90;;;;;;5076204;28;20025;-48
2022/02/20 00:56:49;;;;;;;8.90;4.85;;;10.40;95.90;;;;;;5076262;28;20037;-48
2022/02/20 00:59:16;;;;;;;13.18;6.60;;;10.50;95.40;;;;;;5040191;28;20047;-49
2022/02/20 01:01:41;;;;;;;18.58;10.02;;;10.60;95.50;;;;;;5075603;28;20166;-49
2022/02/20 01:04:08;;;;;;;26.10;11.50;;;10.70;95.30;;;;;;5075894;28;20127;-48
2022/02/20 01:06:34;;;;;;;26.85;12.55;;;10.70;95.10;;;;;;5076015;28;20039;-47
2022/02/20 01:09:00;;;;;;;28.30;12.98;;;10.80;95.00;;;;;;5075972;28;20460;-48
2022/02/20 01:11:26;;;;;;;24.13;11.60;;;10.80;94.80;;;;;;5075950;28;20345;-48
2022/02/20 01:13:52;;;;;;;16.25;9.23;;;10.90;94.80;;;;;;5075648;28;20028;-49
2022/02/20 01:16:19;;;;;;;14.88;8.10;;;10.90;94.70;;;;;;5074742;28;20462;-48
2022/02/20 01:18:45;;;;;;;13.43;6.95;;;10.90;94.50;;;;;;5088963;28;20031;-48
2022/02/20 01:21:11;;;;;;;10.57;5.65;;;10.80;94.60;;;;;;5043365;28;20073;-48
2022/02/20 01:23:37;;;;;;;8.10;4.43;;;10.90;94.60;;;;;;5090962;28;20100;-48
2022/02/20 01:26:03;;;;;;;8.95;3.65;;;10.90;94.60;;;;;;5086737;28;20126;-48
2022/02/20 01:28:28;;;;;;;6.82;3.90;;;10.70;94.60;;;;;;5085611;28;20035;-49
2022/02/20 01:30:54;;;;;;;5.78;2.90;;;10.80;94.70;;;;;;5083713;28;20630;-48
2022/02/20 01:33:23;;;;;;;8.50;3.33;;;10.50;94.70;;;;;;5065566;28;20036;-49
2022/02/20 01:35:49;;;;;;;11.40;4.47;;;10.30;95.40;;;;;;5065708;28;20131;-49
2022/02/20 01:38:15;;;;;;;6.05;3.72;;;10.40;95.70;;;;;;5079743;28;20116;-49
2022/02/20 01:40:45;;;;;;;11.30;5.35;;;10.20;96.00;;;;;;5084700;28;20035;-48
2022/02/20 01:43:12;;;;;;;20.30;8.93;;;10.10;96.20;;;;;;5083720;28;20069;-48
2022/02/20 01:45:39;;;;;;;12.27;5.65;;;10.10;96.60;;;;;;5092284;28;20024;-48
2022/02/20 01:48:06;;;;;;;14.18;6.90;;;10.00;96.70;;;;;;5093508;28;20028;-49
2022/02/20 01:50:31;;;;;;;11.02;5.07;;;10.10;96.80;;;;;;5056359;28;20075;-49
2022/02/20 01:52:57;;;;;;;7.03;3.17;;;10.10;96.90;;;;;;5074794;28;20028;-48
2022/02/20 01:55:24;;;;;;;3.47;1.92;;;10.10;97.00;;;;;;5074846;28;20120;-48
2022/02/20 01:57:50;;;;;;;6.10;2.83;;;9.90;96.80;;;;;;5074959;28;20060;-48
2022/02/20 02:00:18;;;;;;;8.13;4.40;;;9.80;97.30;;;;;;5074793;28;20486;-49
2022/02/20 02:02:44;;;;;;;4.60;3.05;;;9.90;97.40;;;;;;5056375;28;20041;-48
2022/02/20 02:05:10;;;;;;;7.53;3.22;;;9.50;97.70;;;;;;5074881;28;20035;-48
2022/02/20 02:07:36;;;;;;;6.55;3.13;;;9.40;98.10;;;;;;5074842;28;20020;-49
2022/02/20 02:10:04;;;;;;;9.02;3.35;;;9.40;98.60;;;;;;5056118;28;20113;-48
2022/02/20 02:12:30;;;;;;;3.53;2.20;;;9.50;98.40;;;;;;5056122;28;20044;-48
2022/02/20 02:14:56;;;;;;;4.32;2.55;;;9.40;98.60;;;;;;5074852;28;20380;-49
2022/02/20 02:17:23;;;;;;;5.38;3.60;;;9.40;98.90;;;;;;5072590;28;20045;-49
2022/02/20 02:19:49;;;;;;;5.18;3.70;;;9.70;98.40;;;;;;5056054;28;20067;-48
2022/02/20 02:22:17;;;;;;;5.55;3.65;;;9.80;98.10;;;;;;5055666;28;20068;-49
2022/02/20 02:24:44;;;;;;;6.05;3.65;;;9.70;98.40;;;;;;5074220;28;20408;-49
2022/02/20 02:27:12;;;;;;;3.53;1.85;;;9.50;98.60;;;;;;5055865;28;20044;-49
2022/02/20 02:29:38;;;;;;;4.25;1.63;;;9.40;98.60;;;;;;5074452;28;20074;-49
2022/02/20 02:32:04;;;;;;;3.80;2.30;;;9.20;99.50;;;;;;5074239;28;20028;-49
2022/02/20 02:34:30;;;;;;;2.95;1.77;;;9.00;99.70;;;;;;5038580;28;20037;-49
2022/02/20 02:36:56;;;;;;;4.80;1.27;;;8.90;99.90;;;;;;5072357;28;20047;-49
2022/02/20 02:39:22;;;;;;;1.67;1.10;;;8.70;99.90;;;;;;5073769;28;20371;-49
2022/02/20 02:41:48;;;;;;;2.63;1.70;;;8.70;99.90;;;;;;5074421;28;20037;-49
2022/02/20 02:44:14;;;;;;;2.42;1.10;;;8.50;99.90;;;;;;5073936;28;20085;-49
2022/02/20 02:46:39;;;;;;;5.40;1.70;;;8.50;99.90;;;;;;5074117;28;20024;-49
2022/02/20 02:49:05;;;;;;;2.08;1.20;;;8.40;99.90;;;;;;5073713;28;20032;-49
2022/02/20 02:51:31;;;;;;;4.43;1.20;;;8.40;99.90;;;;;;5073935;28;20468;-48
2022/02/20 02:53:58;;;;;;;3.45;1.60;;;8.40;99.90;;;;;;5074096;28;20028;-48
2022/02/20 02:56:24;;;;;;;2.50;0.98;;;8.40;99.90;;;;;;5073871;28;20483;-49
2022/02/20 02:58:50;;;;;;;5.90;1.30;;;8.50;99.90;;;;;;5073880;28;20111;-48
2022/02/20 03:01:17;;;;;;;4.18;1.35;;;8.50;99.90;;;;;;5073773;28;20346;-49
2022/02/20 03:03:43;;;;;;;2.88;1.30;;;8.40;99.90;;;;;;5055309;28;20040;-49
2022/02/20 03:06:10;;;;;;;1.65;1.20;;;8.40;99.90;;;;;;5073912;28;20446;-49
2022/02/20 03:08:36;;;;;;;1.60;1.05;;;8.30;99.90;;;;;;5073847;28;20103;-49
2022/02/20 03:11:03;;;;;;;4.43;1.10;;;8.40;99.90;;;;;;5055177;28;20421;-48
2022/02/20 03:13:30;;;;;;;4.10;1.95;;;8.40;99.90;;;;;;5073735;28;20372;-49
2022/02/20 03:15:56;;;;;;;2.75;1.10;;;8.40;99.90;;;;;;5054976;28;20449;-49
2022/02/20 03:18:22;;;;;;;3.67;1.50;;;8.50;99.90;;;;;;5055049;28;20079;-48
2022/02/20 03:20:48;;;;;;;4.78;1.77;;;8.50;99.90;;;;;;5054774;28;20055;-48
2022/02/20 03:23:13;;;;;;;4.38;1.40;;;8.50;99.90;;;;;;5073221;28;20051;-49
2022/02/20 03:25:39;;;;;;;4.15;1.75;;;8.50;99.90;;;;;;5073527;28;20048;-48
2022/02/20 03:28:05;;;;;;;4.40;1.75;;;8.50;99.90;;;;;;5054793;28;20401;-48
2022/02/20 03:30:31;;;;;;;4.57;1.80;;;8.50;99.90;;;;;;5073601;28;20031;-48
2022/02/20 03:32:57;;;;;;;3.88;1.55;;;8.70;99.90;;;;;;5054788;28;20350;-49
2022/02/20 03:35:24;;;;;;;4.68;2.10;;;8.70;99.90;;;;;;5073186;28;20033;-48
2022/02/20 03:37:50;;;;;;;3.40;1.60;;;8.70;99.90;;;;;;5071478;28;20149;-49
2022/02/20 03:40:15;;;;;;;3.33;1.95;;;8.60;99.90;;;;;;5054697;28;20128;-48
2022/02/20 03:42:41;;;;;;;4.40;1.50;;;8.40;99.90;;;;;;5073376;28;20122;-49
2022/02/20 03:45:08;;;;;;;3.10;1.73;;;8.50;99.90;;;;;;5073336;28;20115;-48
2022/02/20 03:47:34;;;;;;;3.40;1.92;;;8.50;99.90;;;;;;5054655;28;20036;-48
2022/02/20 03:50:00;;;;;;;6.03;1.90;;;8.60;99.90;;;;;;5073225;28;20108;-48
2022/02/20 03:52:25;;;;;;;6.85;2.00;;;8.60;99.90;;;;;;5054524;28;20033;-49
2022/02/20 03:54:51;;;;;;;4.82;1.40;;;8.70;99.90;;;;;;5073444;28;20035;-48
2022/02/20 03:57:17;;;;;;;2.03;0.85;;;8.80;99.90;;;;;;5072998;28;20028;-48
2022/02/20 03:59:42;;;;;;;2.80;1.02;;;8.60;99.90;;;;;;5073226;28;20468;-49
2022/02/20 04:02:08;;;;;;;2.72;1.40;;;8.50;99.90;;;;;;5073297;28;20111;-48
2022/02/20 04:04:34;;;;;;;2.97;1.40;;;8.60;99.90;;;;;;5070912;28;20040;-48
2022/02/20 04:07:00;;;;;;;3.65;1.20;;;8.70;99.90;;;;;;5073311;28;20065;-48
2022/02/20 04:09:26;;;;;;;3.42;1.60;;;8.70;99.90;;;;;;5053984;28;20048;-49
2022/02/20 04:11:52;;;;;;;1.63;0.90;;;8.70;99.90;;;;;;5072970;28;20376;-49
2022/02/20 04:14:17;;;;;;;2.17;1.23;;;8.90;99.90;;;;;;5073048;28;20117;-49
2022/02/20 04:16:44;;;;;;;2.95;1.30;;;8.80;99.90;;;;;;5072941;28;20480;-49
2022/02/20 04:19:09;;;;;;;2.45;1.50;;;8.70;99.90;;;;;;5073022;28;20044;-48
2022/02/20 04:21:35;;;;;;;2.92;1.50;;;8.70;99.90;;;;;;5072966;28;20097;-49
2022/02/20 04:24:01;;;;;;;3.08;1.45;;;8.70;99.90;;;;;;5072901;28;20353;-47
2022/02/20 04:26:27;;;;;;;2.90;1.40;;;8.70;99.90;;;;;;5053696;28;20045;-48
2022/02/20 04:28:53;;;;;;;4.72;1.50;;;8.70;99.90;;;;;;5070725;28;20043;-48
2022/02/20 04:31:19;;;;;;;5.38;2.40;;;8.70;99.90;;;;;;5072543;28;20055;-49
2022/02/20 04:33:47;;;;;;;2.60;1.45;;;8.60;99.90;;;;;;5070745;28;20040;-48
2022/02/20 04:36:13;;;;;;;2.45;1.42;;;8.50;99.90;;;;;;5075301;28;20035;-48
2022/02/20 04:38:39;;;;;;;6.13;1.80;;;8.50;99.90;;;;;;5076389;28;20024;-49
2022/02/20 04:41:06;;;;;;;3.15;1.85;;;8.60;99.90;;;;;;5076333;28;20589;-48
2022/02/20 04:43:32;;;;;;;3.75;1.83;;;8.50;99.90;;;;;;5076268;28;20036;-47
2022/02/20 04:45:57;;;;;;;3.47;1.92;;;8.50;99.90;;;;;;5076216;28;20356;-48
2022/02/20 04:48:23;;;;;;;2.42;1.27;;;8.20;99.90;;;;;;5076164;28;20032;-48
2022/02/20 04:50:49;;;;;;;2.72;1.30;;;8.30;99.90;;;;;;5091035;28;20033;-48
2022/02/20 04:53:15;;;;;;;3.38;1.60;;;8.30;99.90;;;;;;5087902;28;20368;-49
2022/02/20 04:55:41;;;;;;;3.30;1.33;;;8.20;99.90;;;;;;5044047;28;20039;-49
2022/02/20 04:58:08;;;;;;;3.00;1.17;;;8.20;99.90;;;;;;5096165;28;20028;-48
2022/02/20 05:00:34;;;;;;;2.65;1.40;;;8.20;99.90;;;;;;5096258;28;20032;-48
2022/02/20 05:03:01;;;;;;;1.65;1.10;;;8.30;99.90;;;;;;5096130;28;20104;-48
2022/02/20 05:05:27;;;;;;;3.67;1.20;;;8.20;99.90;;;;;;5095958;28;20032;-48
2022/02/20 05:07:52;;;;;;;3.67;1.48;;;8.30;99.90;;;;;;5077145;28;20036;-48
2022/02/20 05:10:18;;;;;;;2.85;1.50;;;8.30;99.90;;;;;;5096099;28;20059;-48
2022/02/20 05:12:44;;;;;;;4.55;1.67;;;8.30;99.90;;;;;;5095829;28;20050;-48
2022/02/20 05:15:10;;;;;;;3.90;1.58;;;8.30;99.90;;;;;;5095693;28;20103;-49
2022/02/20 05:17:39;;;;;;;7.10;4.63;;;8.30;99.90;;;;;;5093728;28;20127;-49
2022/02/20 05:20:06;;;;;;;4.43;2.10;;;8.40;99.90;;;;;;5096106;28;20028;-49
2022/02/20 05:22:32;;;;;;;4.05;1.73;;;8.30;99.90;;;;;;5060255;28;20040;-48
2022/02/20 05:24:57;;;;;;;6.38;4.45;;;8.30;99.90;;;;;;5095549;28;20086;-48
2022/02/20 05:27:23;;;;;;;6.47;3.70;;;8.20;99.90;;;;;;5076636;28;20036;-48
2022/02/20 05:29:49;;;;;;;8.10;4.75;;;8.10;99.90;;;;;;5095559;28;20072;-48
2022/02/20 05:32:23;;;;;;;5.68;2.90;;;8.10;99.90;;;;;;5095529;28;20460;-48
2022/02/20 05:34:53;;;;;;;5.63;1.48;;;7.90;99.90;;;;;;5078057;28;20111;-48
2022/02/20 05:37:19;;;;;;;4.28;1.90;;;7.80;99.90;;;;;;5095383;28;20040;-48
2022/02/20 05:39:46;;;;;;;3.95;1.67;;;7.80;99.90;;;;;;5059795;28;20400;-49
2022/02/20 05:42:12;;;;;;;3.22;1.67;;;7.80;99.90;;;;;;5095430;28;20403;-49
2022/02/20 05:44:38;;;;;;;5.25;2.10;;;7.70;99.90;;;;;;5095083;28;20601;-54
2022/02/20 05:47:04;;;;;;;5.45;1.80;;;7.80;99.90;;;;;;5075835;28;20118;-48
2022/02/20 05:49:30;;;;;;;3.30;1.88;;;7.80;99.90;;;;;;5095024;28;20490;-48
2022/02/20 05:51:55;;;;;;;6.15;2.65;;;7.80;99.90;;;;;;5095106;28;20046;-48
2022/02/20 05:54:21;;;;;;;5.43;3.38;;;7.60;99.90;;;;;;5094989;28;20031;-49
2022/02/20 05:56:49;;;;;;;5.72;3.22;;;7.70;99.90;;;;;;5094510;28;20109;-48
2022/02/20 05:59:16;;;;;;;5.60;3.63;;;7.70;99.90;;;;;;5076510;28;20166;-49
2022/02/20 06:01:42;;;;;;;6.25;3.20;;;7.70;99.90;;;;;;5095091;28;20024;-48
2022/02/20 06:04:08;;;;;;;6.68;3.40;;;7.70;99.90;;;;;;5094769;28;20468;-48
2022/02/20 06:06:33;;;;;;;7.28;3.00;;;7.80;99.90;;;;;;5076188;28;20062;-48
2022/02/20 06:09:00;;;;;;;4.80;2.30;;;7.80;99.90;;;;;;5095077;28;20427;-48
2022/02/20 06:11:26;;;;;;;6.18;3.67;;;7.60;99.90;;;;;;5092739;28;20098;-47
2022/02/20 06:13:52;;;;;;;14.05;6.35;;;7.30;99.90;;;;;;5094922;28;20028;-48
2022/02/20 06:16:18;;;;;;;25.30;11.10;;;7.00;99.90;;;;;;5094753;28;20498;-48
2022/02/20 06:18:45;;;;;;;252.57;229.30;;;7.10;99.90;;;;;;5094907;28;20024;-48
2022/02/20 06:21:12;;;;;;;410.10;376.70;;;7.30;99.90;;;;;;5094868;28;20036;-48
2022/02/20 06:23:38;;;;;;;44.85;25.73;;;7.40;99.90;;;;;;5094811;28;20490;-49
2022/02/20 06:26:03;;;;;;;4.20;1.83;;;7.50;99.90;;;;;;5094344;28;20048;-48
2022/02/20 06:28:29;;;;;;;7.05;3.28;;;7.60;99.90;;;;;;5094556;28;20028;-48
2022/02/20 06:30:55;;;;;;;9.73;4.10;;;7.80;99.90;;;;;;5094825;28;20020;-49
2022/02/20 06:33:21;;;;;;;20.77;11.55;;;7.60;99.90;;;;;;5075372;28;20479;-48
2022/02/20 06:35:47;;;;;;;29.10;19.70;;;7.40;99.90;;;;;;5058713;28;20048;-48
2022/02/20 06:38:12;;;;;;;199.77;179.43;;;7.00;99.90;;;;;;5075433;28;20063;-48
2022/02/20 06:40:38;;;;;;;18.17;13.43;;;6.90;99.90;;;;;;5058701;28;20499;-47
2022/02/20 06:43:04;;;;;;;113.90;88.97;;;6.80;99.90;;;;;;5094568;28;20097;-48
2022/02/20 06:45:30;;;;;;;784.72;723.97;;;6.80;99.90;;;;;;5094427;28;20055;-48
2022/02/20 06:47:56;;;;;;;757.85;693.17;;;7.10;99.90;;;;;;5094092;28;20341;-48
2022/02/20 06:50:22;;;;;;;42.45;28.45;;;7.10;99.90;;;;;;5094173;28;20024;-48
2022/02/20 06:52:48;;;;;;;385.70;350.00;;;7.20;99.90;;;;;;5058200;28;20032;-49
2022/02/20 06:55:13;;;;;;;3.38;2.22;;;7.30;99.90;;;;;;5092166;28;20101;-48
2022/02/20 06:57:40;;;;;;;15.35;7.45;;;7.20;99.90;;;;;;5092086;28;20040;-48
2022/02/20 07:00:10;;;;;;;12.27;6.50;;;6.90;99.90;;;;;;5094460;28;20415;-48
2022/02/20 07:02:39;;;;;;;9.77;4.47;;;6.90;99.90;;;;;;5042351;28;20082;-48
2022/02/20 07:05:07;;;;;;;4.32;2.60;;;7.00;99.90;;;;;;5058615;28;20115;-48
2022/02/20 07:07:33;;;;;;;5.00;2.20;;;7.10;99.90;;;;;;5058541;28;20037;-51
2022/02/20 07:09:59;;;;;;;9.35;4.72;;;7.40;99.90;;;;;;5059326;28;20127;-47
2022/02/20 07:12:25;;;;;;;22.10;12.38;;;7.20;99.90;;;;;;5095168;28;20107;-48
2022/02/20 07:14:51;;;;;;;26.27;12.88;;;7.50;99.90;;;;;;5091530;28;20039;-48
2022/02/20 07:17:18;;;;;;;30.15;18.92;;;7.50;99.90;;;;;;5091096;28;20048;-48
2022/02/20 07:19:44;;;;;;;26.85;16.52;;;7.70;99.90;;;;;;5091430;28;20115;-48
2022/02/20 07:22:10;;;;;;;23.88;16.15;;;;;;;;;;5091313;28;20134;-48
2022/02/20 07:24:38;;;;;;;20.67;13.95;;;7.90;99.90;;;;;;5090992;28;20151;-48
2022/02/20 07:27:04;;;;;;;21.00;13.05;;;8.20;99.90;;;;;;5074760;28;20545;-49
2022/02/20 07:29:31;;;;;;;16.38;11.77;;;8.00;99.90;;;;;;5057620;28;20051;-48
2022/02/20 07:31:57;;;;;;;13.55;10.27;;;8.30;99.90;;;;;;5091177;28;20028;-48
2022/02/20 07:34:24;;;;;;;13.07;10.02;;;8.40;99.90;;;;;;5074385;28;20040;-49
2022/02/20 07:36:50;;;;;;;19.00;10.93;;;;;;;;;;5074449;28;20128;-49
2022/02/20 07:39:16;;;;;;;14.40;9.75;;;;;;;;;;5091314;28;20074;-48
2022/02/20 07:41:42;;;;;;;11.23;6.70;;;;;;;;;;5091352;28;20469;-48
2022/02/20 07:44:08;;;;;;;10.05;6.60;;;8.50;99.90;;;;;;5091245;28;20465;-49
2022/02/20 07:46:34;;;;;;;11.10;7.88;;;8.50;99.90;;;;;;5093014;28;20039;-48
2022/02/20 07:49:00;;;;;;;15.02;9.63;;;7.90;99.90;;;;;;5093490;28;20024;-48
2022/02/20 07:51:27;;;;;;;18.08;12.77;;;8.20;99.90;;;;;;5074595;28;20491;-48
2022/02/20 07:53:54;;;;;;;15.52;12.27;;;8.20;99.90;;;;;;5093426;28;20028;-48
2022/02/20 07:56:20;;;;;;;25.58;13.88;;;8.20;99.90;;;;;;5090431;28;20101;-48
2022/02/20 07:58:46;;;;;;;25.73;15.73;;;8.30;99.90;;;;;;5093483;28;20076;-48
2022/02/20 08:01:12;;;;;;;12.57;7.00;;;8.20;99.90;;;;;;5093382;28;21193;-48
2022/02/20 08:03:38;;;;;;;15.32;8.98;;;8.10;99.90;;;;;;5093399;28;20016;-49
2022/02/20 08:06:05;;;;;;;10.23;5.43;;;8.30;99.90;;;;;;5091282;28;20352;-48
2022/02/20 08:08:32;;;;;;;7.55;5.28;;;8.20;99.90;;;;;;5093229;28;20027;-49
2022/02/20 08:11:00;;;;;;;6.60;3.95;;;8.40;99.90;;;;;;5096591;28;20103;-49
2022/02/20 08:13:26;;;;;;;6.55;3.10;;;8.30;99.90;;;;;;5096812;28;20032;-48
2022/02/20 08:15:53;;;;;;;7.15;4.57;;;8.10;99.90;;;;;;5096105;28;20063;-48
2022/02/20 08:18:19;;;;;;;6.13;4.10;;;8.10;99.90;;;;;;5097084;28;20103;-48
2022/02/20 08:20:46;;;;;;;6.38;3.72;;;8.00;99.90;;;;;;5097235;28;20024;-48
2022/02/20 08:23:13;;;;;;;6.32;4.07;;;8.10;99.90;;;;;;5097097;28;20125;-48
2022/02/20 08:25:42;;;;;;;5.80;3.22;;;8.10;99.90;;;;;;5096505;28;20106;-50
2022/02/20 08:28:08;;;;;;;4.30;3.03;;;8.10;99.90;;;;;;5039349;28;20123;-49
2022/02/20 08:30:34;;;;;;;5.20;3.60;;;8.00;99.90;;;;;;5090277;28;20116;-48
2022/02/20 08:33:02;;;;;;;9.82;5.90;;;8.10;99.90;;;;;;5073701;28;20131;-49
2022/02/20 08:35:28;;;;;;;7.78;4.68;;;8.40;99.90;;;;;;5088049;28;20033;-49
2022/02/20 08:37:55;;;;;;;5.07;3.25;;;8.40;99.90;;;;;;5082420;28;20046;-49
2022/02/20 08:40:21;;;;;;;4.90;3.30;;;8.60;99.90;;;;;;5084564;28;20528;-48
2022/02/20 08:42:48;;;;;;;5.65;3.25;;;8.40;99.90;;;;;;5084940;28;20111;-49
2022/02/20 08:45:16;;;;;;;3.08;2.30;;;8.10;99.90;;;;;;5091091;28;20040;-50
2022/02/20 08:47:42;;;;;;;3.53;2.30;;;7.90;99.90;;;;;;5078247;28;20021;-49
2022/02/20 08:50:09;;;;;;;778.60;714.03;;;7.30;99.90;;;;;;5086817;28;20028;-48
2022/02/20 08:52:39;;;;;;;49.90;40.35;;;7.20;99.90;;;;;;5093028;28;20032;-48
2022/02/20 08:55:07;;;;;;;7.85;4.32;;;7.20;99.90;;;;;;5096714;28;20475;-48
2022/02/20 08:57:33;;;;;;;15.27;9.57;;;7.40;99.90;;;;;;5096510;28;20040;-48
2022/02/20 08:59:59;;;;;;;7.07;5.13;;;7.70;99.90;;;;;;5096796;28;20032;-51
2022/02/20 09:02:25;;;;;;;9.20;3.58;;;7.60;99.90;;;;;;5096439;28;20038;-49
2022/02/20 09:04:52;;;;;;;6.50;3.55;;;7.60;99.90;;;;;;5097992;28;20032;-48
2022/02/20 09:07:18;;;;;;;10.07;4.43;;;7.70;99.90;;;;;;5077065;28;20448;-48
2022/02/20 09:09:44;;;;;;;6.57;3.58;;;7.70;99.90;;;;;;5091589;28;20025;-50
2022/02/20 09:12:10;;;;;;;7.25;3.40;;;7.60;99.90;;;;;;5086293;28;20021;-48
2022/02/20 09:14:36;;;;;;;8.10;3.35;;;7.40;99.90;;;;;;5075067;28;20072;-49
2022/02/20 09:17:02;;;;;;;6.68;3.53;;;7.40;99.90;;;;;;5091724;28;20032;-48
2022/02/20 09:19:29;;;;;;;6.78;4.55;;;7.60;99.90;;;;;;5088409;28;20039;-49
2022/02/20 09:21:55;;;;;;;1543.57;525.47;;;7.60;99.90;;;;;;5075812;28;20055;-49
2022/02/20 09:24:21;;;;;;;163.20;53.97;;;7.70;99.90;;;;;;5095674;28;20032;-48
2022/02/20 09:26:47;;;;;;;12.38;6.97;;;7.70;99.90;;;;;;5091970;28;20032;-49
2022/02/20 09:29:13;;;;;;;14.05;7.00;;;7.60;99.90;;;;;;5086968;28;20027;-50
2022/02/20 09:31:40;;;;;;;49.63;27.58;;;7.80;99.90;;;;;;5086805;28;20024;-49
2022/02/20 09:34:05;;;;;;;5.65;4.07;;;7.90;99.90;;;;;;5074940;28;20484;-48
2022/02/20 09:36:32;;;;;;;9.05;6.68;;;7.30;99.90;;;;;;5075554;28;20039;-49
2022/02/20 09:38:58;;;;;;;4.57;3.38;;;7.30;99.90;;;;;;5057114;28;20041;-49
2022/02/20 09:41:29;;;;;;;5.32;2.90;;;7.10;99.90;;;;;;5075710;28;20032;-48
2022/02/20 09:43:56;;;;;;;5.85;3.80;;;7.10;99.90;;;;;;5082155;28;20079;-49
2022/02/20 09:46:22;;;;;;;7.47;4.40;;;7.10;99.90;;;;;;5082970;28;20075;-51
2022/02/20 09:48:57;;;;;;;14.00;7.85;;;7.30;99.90;;;;;;5093912;28;20031;-52
2022/02/20 09:51:23;;;;;;;9.75;5.30;;;7.40;99.90;;;;;;5081718;28;20037;-51
2022/02/20 09:53:49;;;;;;;7.25;4.68;;;7.80;99.90;;;;;;5075302;28;20028;-51
2022/02/20 09:56:15;;;;;;;12.48;7.70;;;7.80;99.90;;;;;;5089259;28;20366;-53
2022/02/20 09:58:41;;;;;;;5.68;4.05;;;7.80;99.90;;;;;;5087268;28;20040;-53
2022/02/20 10:01:12;;;;;;;6.57;4.45;;;7.60;99.90;;;;;;5045334;28;20036;-52
2022/02/20 10:03:40;;;;;;;7.68;5.10;;;7.70;99.90;;;;;;5075326;28;20036;-56
2022/02/20 10:06:09;;;;;;;13.57;7.20;;;7.70;99.90;;;;;;5081356;28;20028;-52
2022/02/20 10:08:41;;;;;;;27.80;13.00;;;7.80;99.90;;;;;;5087243;28;20024;-55
2022/02/20 10:11:22;;;;;;;34.85;18.20;;;8.40;99.90;;;;;;5095451;28;20039;-52
2022/02/20 10:13:50;;;;;;;7.40;4.72;;;8.60;99.90;;;;;;5095311;28;20032;-52
2022/02/20 10:16:21;;;;;;;7.15;4.88;;;8.20;99.90;;;;;;5096850;28;20043;-54
2022/02/20 10:18:48;;;;;;;15.88;8.75;;;7.90;99.90;;;;;;5096073;28;20024;-54
2022/02/20 10:21:20;;;;;;;25.38;14.60;;;8.40;99.90;;;;;;5095759;28;20126;-56
2022/02/20 10:23:46;;;;;;;15.00;8.23;;;;;;;;;;5095823;28;20117;-52
2022/02/20 10:26:13;;;;;;;9.65;6.65;;;;;;;;;;5100024;28;20047;-53
2022/02/20 10:28:59;;;;;;;9.57;6.63;;;;;;;;;;5100407;28;20369;-50
2022/02/20 10:31:43;;;;;;;14.75;10.38;;;;;;;;;;5111812;28;20465;-55
2022/02/20 10:34:14;;;;;;;16.50;11.65;;;9.50;99.90;;;;;;5111518;28;20032;-50
2022/02/20 10:36:51;;;;;;;27.85;17.02;;;;;;;;;;5084049;28;20405;-48
2022/02/20 10:39:18;;;;;;;27.50;13.70;;;;;;;;;;5099617;28;20024;-49
2022/02/20 10:41:44;;;;;;;10.07;6.20;;;;;;;;;;5098901;28;20100;-47
2022/02/20 10:44:10;;;;;;;11.38;6.80;;;10.00;99.90;;;;;;5102054;28;20021;-49
2022/02/20 10:46:36;;;;;;;15.05;8.35;;;;;;;;;;5085696;28;20047;-48
2022/02/20 10:49:02;;;;;;;17.70;11.30;;;10.20;99.90;;;;;;5103802;28;20028;-50
2022/02/20 10:51:37;;;;;;;21.30;14.77;;;;;;;;;;5110421;28;20032;-48
2022/02/20 10:54:03;;;;;;;14.32;9.98;;;;;;;;;;5105379;28;20035;-49
2022/02/20 10:56:43;;;;;;;17.17;10.57;;;10.10;99.90;;;;;;5091955;28;20119;-49
2022/02/20 10:59:09;;;;;;;15.40;11.15;;;10.50;99.90;;;;;;5097634;28;20115;-48
2022/02/20 11:01:36;;;;;;;16.00;11.20;;;10.10;99.90;;;;;;5108601;28;20035;-48
2022/02/20 11:04:07;;;;;;;13.82;10.45;;;;;;;;;;5099268;28;20036;-49
2022/02/20 11:06:34;;;;;;;14.60;10.75;;;;;;;;;;5104556;28;20483;-49
2022/02/20 11:09:01;;;;;;;14.55;10.57;;;;;;;;;;5077049;28;20038;-50
2022/02/20 11:11:36;;;;;;;15.48;10.50;;;;;;;;;;5109630;28;20506;-48
2022/02/20 11:14:13;;;;;;;18.58;11.55;;;10.70;99.90;;;;;;5101744;28;20127;-49
2022/02/20 11:17:00;;;;;;;10.80;7.07;;;;;;;;;;5106404;28;20038;-51
2022/02/20 11:19:30;;;;;;;9.98;7.82;;;10.70;99.90;;;;;;5096132;28;20027;-51
2022/02/20 11:22:01;;;;;;;9.43;6.45;;;10.80;99.90;;;;;;5098567;28;20035;-49
2022/02/20 11:24:29;;;;;;;9.52;5.85;;;10.80;99.90;;;;;;5045264;28;20039;-48
2022/02/20 11:26:59;;;;;;;10.20;6.60;;;10.70;99.90;;;;;;5062178;28;20041;-50
2022/02/20 11:29:25;;;;;;;10.98;8.15;;;11.00;99.90;;;;;;5096120;28;20375;-50
2022/02/20 11:31:51;;;;;;;11.15;7.88;;;11.10;99.90;;;;;;5074085;28;20595;-49
2022/02/20 11:34:18;;;;;;;9.65;8.00;;;;;;;;;;5106355;28;20059;-50
2022/02/20 11:37:11;;;;;;;13.75;9.02;;;11.80;99.90;;;;;;5103035;28;20119;-48
2022/02/20 11:39:37;;;;;;;11.35;8.05;;;;;;;;;;5103530;28;20044;-47
2022/02/20 11:42:17;;;;;;;7.38;5.35;;;13.60;99.90;;;;;;5106910;28;20036;-48
2022/02/20 11:44:47;;;;;;;5.55;4.13;;;;;;;;;;5097723;28;20111;-50
2022/02/20 11:47:32;;;;;;;8.20;3.88;;;;;;;;;;5101461;28;20220;-50
2022/02/20 11:50:18;;;;;;;6.07;4.00;;;;;;;;;;5113065;28;20494;-49
2022/02/20 11:52:51;;;;;;;6.43;4.05;;;;;;;;;;5080334;28;20371;-48
2022/02/20 11:55:27;;;;;;;6.32;3.58;;;;;;;;;;5098793;28;20051;-48
2022/02/20 11:58:29;;;;;;;5.53;4.20;;;;;;;;;;5101771;28;20063;-49
2022/02/20 12:00:55;;;;;;;6.30;3.53;;;15.50;99.90;;;;;;5017046;28;20033;-49
2022/02/20 12:03:22;;;;;;;3.95;3.30;;;15.30;99.90;;;;;;5018149;28;20088;-49
2022/02/20 12:06:17;;;;;;;7.25;4.32;;;15.60;99.90;;;;;;5026712;28;20101;-48
2022/02/20 12:08:56;;;;;;;6.28;4.35;;;15.90;99.90;;;;;;5010766;28;20394;-48
2022/02/20 12:11:45;;;;;;;5.53;3.85;;;15.50;99.90;;;;;;5017831;28;20045;-49
2022/02/20 12:14:19;;;;;;;6.28;4.25;;;15.80;99.90;;;;;;5013241;28;20032;-49
2022/02/20 12:16:51;;;;;;;5.82;3.65;;;16.20;99.90;;;;;;5018132;28;20038;-49
2022/02/20 12:19:23;;;;;;;7.25;4.10;;;16.40;99.90;;;;;;5020548;28;20030;-48
2022/02/20 12:22:14;;;;;;;4.85;3.40;;;16.60;99.90;;;;;;5026313;28;20068;-48
2022/02/20 12:24:44;;;;;;;5.05;3.40;;;16.50;99.90;;;;;;5019026;28;20042;-47
2022/02/20 12:27:35;;;;;;;5.57;3.70;;;16.50;99.90;;;;;;5018707;28;20030;-48
2022/02/20 12:30:15;;;;;;;8.00;3.80;;;16.50;99.90;;;;;;5024254;28;20034;-47
2022/02/20 12:32:43;;;;;;;4.40;2.95;;;15.70;99.90;;;;;;4970980;28;20170;-47
2022/02/20 12:35:08;;;;;;;6.97;3.63;;;15.80;99.90;;;;;;5049751;28;20036;-48
2022/02/20 12:37:48;;;;;;;5.63;3.85;;;15.40;99.90;;;;;;5102392;28;20059;-48
2022/02/20 12:40:20;;;;;;;5.85;4.60;;;15.30;99.90;;;;;;5067877;28;20055;-48
2022/02/20 12:42:57;;;;;;;7.10;4.47;;;;;;;;;;5107365;28;20039;-48
2022/02/20 12:45:31;;;;;;;10.73;6.57;;;14.10;99.90;;;;;;5106598;28;20045;-47
2022/02/20 12:47:59;;;;;;;7.55;5.07;;;14.10;99.90;;;;;;5098181;28;20454;-48
2022/02/20 12:50:28;;;;;;;5.32;4.05;;;14.20;99.90;;;;;;5112788;28;20036;-48
2022/02/20 12:52:56;;;;;;;7.13;4.75;;;14.70;99.90;;;;;;5106413;28;20048;-48
2022/02/20 12:55:24;;;;;;;6.45;4.60;;;15.10;99.90;;;;;;5104391;28;20529;-48
2022/02/20 12:57:56;;;;;;;6.47;4.50;;;14.90;99.90;;;;;;5111736;28;20035;-48